createdAt,value
2018-05-06T00:01:11.138Z,24.57
2018-05-06T00:03:39.409Z,24.70
2018-05-06T00:06:07.661Z,24.27
2018-05-06T00:08:35.919Z,23.42
2018-05-06T00:11:04.199Z,23.00
2018-05-06T00:13:32.472Z,23.50
2018-05-06T00:16:00.732Z,24.63
2018-05-06T00:18:29.762Z,23.02
2018-05-06T00:20:58.023Z,24.67
2018-05-06T00:23:26.292Z,25.77
2018-05-06T00:25:55.322Z,23.20
2018-05-06T00:28:23.591Z,25.43
2018-05-06T00:30:51.847Z,25.73
2018-05-06T00:33:20.884Z,26.27
2018-05-06T00:35:49.153Z,26.07
2018-05-06T00:38:17.426Z,26.65
2018-05-06T00:40:46.458Z,26.70
2018-05-06T00:43:14.735Z,25.53
2018-05-06T00:45:43.002Z,26.17
2018-05-06T00:48:11.304Z,26.90
2018-05-06T00:50:39.563Z,24.73
2018-05-06T00:53:07.836Z,25.17
2018-05-06T00:55:36.095Z,25.43
2018-05-06T00:58:05.139Z,24.70
2018-05-06T01:00:33.412Z,25.03
2018-05-06T01:03:01.673Z,24.02
2018-05-06T01:05:29.953Z,25.03
2018-05-06T01:07:58.223Z,24.87
2018-05-06T01:10:26.503Z,24.77
2018-05-06T01:12:54.758Z,24.17
2018-05-06T01:15:23.028Z,25.73
2018-05-06T01:17:51.298Z,25.87
2018-05-06T01:20:19.575Z,26.10
2018-05-06T01:22:47.831Z,24.40
2018-05-06T01:25:16.086Z,24.53
2018-05-06T01:27:44.357Z,21.10
2018-05-06T01:30:13.378Z,20.77
2018-05-06T01:32:41.635Z,21.67
2018-05-06T01:35:10.658Z,21.57
2018-05-06T01:37:39.226Z,21.55
2018-05-06T01:40:08.251Z,20.98
2018-05-06T01:42:36.499Z,22.05
2018-05-06T01:45:05.527Z,21.57
2018-05-06T01:47:33.788Z,23.37
2018-05-06T01:50:02.883Z,22.52
2018-05-06T01:52:31.898Z,22.60
2018-05-06T01:55:00.179Z,20.60
2018-05-06T01:57:28.432Z,21.57
2018-05-06T01:59:57.451Z,20.87
2018-05-06T02:02:25.703Z,22.03
2018-05-06T02:04:53.959Z,21.98
2018-05-06T02:07:22.208Z,22.87
2018-05-06T02:09:50.786Z,23.90
2018-05-06T02:12:19.039Z,23.37
2018-05-06T02:14:48.307Z,22.67
2018-05-06T02:17:16.558Z,23.67
2018-05-06T02:19:44.811Z,24.07
2018-05-06T02:22:13.839Z,25.30
2018-05-06T02:24:42.091Z,24.17
2018-05-06T02:27:10.348Z,24.20
2018-05-06T02:29:38.620Z,26.03
2018-05-06T02:32:06.874Z,24.77
2018-05-06T02:34:35.129Z,27.03
2018-05-06T02:37:03.401Z,23.93
2018-05-06T02:39:32.420Z,24.43
2018-05-06T02:42:00.683Z,25.23
2018-05-06T02:44:28.936Z,27.33
2018-05-06T02:46:57.989Z,27.17
2018-05-06T02:49:26.256Z,24.70
2018-05-06T02:51:55.458Z,27.17
2018-05-06T02:54:23.729Z,28.07
2018-05-06T02:56:51.989Z,22.80
2018-05-06T02:59:21.011Z,22.37
2018-05-06T03:01:49.270Z,22.10
2018-05-06T03:04:18.286Z,19.70
2018-05-06T03:06:46.547Z,21.30
2018-05-06T03:09:15.570Z,21.17
2018-05-06T03:11:43.832Z,21.37
2018-05-06T03:14:12.082Z,21.10
2018-05-06T03:16:40.356Z,19.63
2018-05-06T03:19:08.602Z,20.77
2018-05-06T03:21:36.862Z,22.63
2018-05-06T03:24:06.231Z,20.95
2018-05-06T03:26:34.496Z,23.90
2018-05-06T03:29:02.755Z,23.87
2018-05-06T03:31:31.020Z,25.87
2018-05-06T03:33:59.276Z,23.93
2018-05-06T03:36:28.304Z,26.07
2018-05-06T03:38:56.554Z,25.90
2018-05-06T03:41:25.597Z,28.43
2018-05-06T03:43:53.855Z,27.10
2018-05-06T03:46:22.132Z,27.87
2018-05-06T03:48:50.392Z,25.98
2018-05-06T03:51:19.432Z,24.83
2018-05-06T03:53:47.688Z,24.43
2018-05-06T03:59:58.193Z,26.60
2018-05-06T04:02:39.265Z,24.60
2018-05-06T04:05:07.512Z,25.80
2018-05-06T04:07:35.778Z,28.87
2018-05-06T04:10:04.030Z,29.03
2018-05-06T04:12:32.303Z,28.25
2018-05-06T04:15:01.325Z,29.00
2018-05-06T04:17:30.523Z,29.77
2018-05-06T04:19:58.795Z,29.40
2018-05-06T04:22:27.064Z,30.13
2018-05-06T04:24:56.111Z,29.80
2018-05-06T04:27:24.382Z,29.07
2018-05-06T04:29:52.630Z,29.07
2018-05-06T04:32:20.901Z,29.23
2018-05-06T04:34:49.927Z,29.85
2018-05-06T04:37:18.214Z,27.40
2018-05-06T04:39:46.480Z,29.63
2018-05-06T04:42:14.757Z,29.30
2018-05-06T04:44:43.052Z,30.53
2018-05-06T04:47:11.309Z,32.77
2018-05-06T04:49:40.340Z,31.93
2018-05-06T04:52:10.255Z,31.00
2018-05-06T04:54:38.510Z,30.20
2018-05-06T04:57:06.791Z,30.95
2018-05-06T04:59:36.628Z,29.55
2018-05-06T05:02:04.892Z,29.57
2018-05-06T05:04:33.158Z,28.65
2018-05-06T05:07:02.193Z,29.67
2018-05-06T05:09:30.516Z,28.17
2018-05-06T05:11:58.721Z,27.63
2018-05-06T05:14:27.736Z,27.67
2018-05-06T05:16:56.007Z,27.97
2018-05-06T05:19:24.266Z,27.97
2018-05-06T05:21:53.316Z,26.33
2018-05-06T05:24:21.584Z,26.97
2018-05-06T05:26:49.864Z,25.97
2018-05-06T05:29:18.210Z,25.30
2018-05-06T05:31:46.422Z,24.97
2018-05-06T05:34:14.707Z,24.03
2018-05-06T05:36:42.963Z,24.77
2018-05-06T05:39:12.007Z,22.75
2018-05-06T05:41:40.249Z,24.80
2018-05-06T05:44:08.526Z,23.43
2018-05-06T05:46:37.560Z,21.80
2018-05-06T05:49:05.835Z,22.07
2018-05-06T05:51:34.380Z,22.30
2018-05-06T05:54:03.500Z,21.70
2018-05-06T05:56:31.764Z,21.17
2018-05-06T05:59:00.874Z,21.83
2018-05-06T06:01:29.181Z,21.03
2018-05-06T06:03:58.189Z,21.67
2018-05-06T06:06:26.457Z,22.30
2018-05-06T06:08:54.997Z,22.40
2018-05-06T06:11:23.362Z,20.43
2018-05-06T06:13:52.518Z,19.40
2018-05-06T06:16:20.887Z,19.80
2018-05-06T06:18:49.171Z,21.42
2018-05-06T06:21:17.443Z,22.52
2018-05-06T06:23:46.495Z,21.97
2018-05-06T06:26:14.763Z,26.43
2018-05-06T06:28:43.049Z,24.02
2018-05-06T06:31:11.366Z,24.57
2018-05-06T06:33:39.635Z,25.13
2018-05-06T06:36:07.885Z,23.83
2018-05-06T06:38:36.200Z,24.70
2018-05-06T06:41:04.463Z,24.53
2018-05-06T06:43:32.737Z,25.00
2018-05-06T06:46:00.994Z,26.27
2018-05-06T06:48:29.269Z,26.83
2018-05-06T06:50:57.535Z,28.35
2018-05-06T06:53:25.804Z,28.23
2018-05-06T06:55:54.835Z,27.27
2018-05-06T06:58:23.110Z,26.90
2018-05-06T07:00:51.389Z,27.92
2018-05-06T07:03:19.639Z,27.37
2018-05-06T07:05:48.749Z,28.23
2018-05-06T07:08:16.954Z,29.60
2018-05-06T07:10:45.213Z,32.07
2018-05-06T07:13:13.719Z,32.85
2018-05-06T07:15:42.096Z,29.30
2018-05-06T07:18:10.379Z,29.17
2018-05-06T07:20:38.642Z,29.27
2018-05-06T07:23:06.900Z,29.33
2018-05-06T07:25:35.189Z,28.33
2018-05-06T07:28:04.231Z,28.90
2018-05-06T07:30:32.507Z,29.63
2018-05-06T07:33:00.774Z,26.47
2018-05-06T07:35:29.060Z,29.37
2018-05-06T07:37:57.327Z,26.57
2018-05-06T07:40:25.590Z,25.67
2018-05-06T07:42:54.627Z,26.20
2018-05-06T07:45:22.895Z,27.93
2018-05-06T07:47:51.159Z,29.77
2018-05-06T07:50:20.198Z,27.47
2018-05-06T07:52:48.458Z,25.77
2018-05-06T07:55:16.742Z,25.20
2018-05-06T07:57:44.990Z,23.53
2018-05-06T08:00:14.020Z,21.40
2018-05-06T08:02:42.297Z,21.77
2018-05-06T08:05:11.236Z,21.84
2018-05-06T08:07:39.500Z,21.00
2018-05-06T08:10:07.772Z,24.15
2018-05-06T08:12:36.035Z,20.57
2018-05-06T08:15:04.304Z,19.85
2018-05-06T08:17:32.580Z,21.17
2018-05-06T08:20:01.624Z,21.23
2018-05-06T08:22:29.950Z,19.87
2018-05-06T08:24:58.155Z,20.92
2018-05-06T08:27:26.422Z,20.75
2018-05-06T08:29:54.694Z,20.30
2018-05-06T08:32:23.719Z,20.53
2018-05-06T08:34:51.979Z,18.85
2018-05-06T08:37:20.260Z,19.98
2018-05-06T08:39:48.538Z,19.30
2018-05-06T08:42:17.555Z,19.73
2018-05-06T08:44:45.836Z,19.10
2018-05-06T08:47:15.882Z,19.12
2018-05-06T08:49:44.146Z,18.33
2018-05-06T08:52:12.407Z,17.23
2018-05-06T08:54:40.706Z,16.30
2018-05-06T08:57:08.981Z,14.48
2018-05-06T08:59:37.329Z,15.37
2018-05-06T09:02:06.351Z,14.70
2018-05-06T09:04:34.631Z,15.63
2018-05-06T09:07:03.659Z,14.70
2018-05-06T09:09:31.927Z,15.02
2018-05-06T09:12:00.211Z,16.60
2018-05-06T09:14:28.471Z,16.60
2018-05-06T09:16:56.746Z,16.73
2018-05-06T09:19:25.012Z,17.15
2018-05-06T09:21:54.046Z,15.05
2018-05-06T09:24:22.303Z,15.23
2018-05-06T09:26:50.575Z,15.70
2018-05-06T09:29:19.599Z,13.30
2018-05-06T09:31:47.900Z,13.57
2018-05-06T09:34:16.156Z,13.87
2018-05-06T09:36:44.428Z,13.93
2018-05-06T09:39:12.684Z,13.88
2018-05-06T09:41:40.951Z,13.10
2018-05-06T09:44:09.222Z,13.53
2018-05-06T09:46:37.488Z,14.23
2018-05-06T09:49:06.442Z,12.60
2018-05-06T09:51:34.731Z,12.70
2018-05-06T09:54:02.994Z,12.97
2018-05-06T09:56:32.027Z,13.00
2018-05-06T09:59:00.282Z,13.95
2018-05-06T10:01:28.567Z,13.35
2018-05-06T10:03:56.828Z,13.67
2018-05-06T10:06:25.872Z,13.15
2018-05-06T10:08:54.129Z,11.82
2018-05-06T10:11:22.399Z,13.10
2018-05-06T10:13:50.668Z,11.63
2018-05-06T10:16:19.711Z,11.33
2018-05-06T10:18:47.968Z,11.63
2018-05-06T10:21:16.304Z,10.77
2018-05-06T10:23:44.569Z,11.02
2018-05-06T10:26:12.866Z,9.83
2018-05-06T10:28:41.096Z,10.57
2018-05-06T10:31:09.367Z,10.52
2018-05-06T10:33:37.638Z,10.02
2018-05-06T10:36:06.677Z,10.40
2018-05-06T10:38:34.945Z,9.77
2018-05-06T10:41:03.480Z,10.18
2018-05-06T10:43:31.743Z,10.70
2018-05-06T10:46:00.016Z,10.00
2018-05-06T10:48:28.283Z,9.60
2018-05-06T10:50:56.531Z,7.40
2018-05-06T10:53:24.814Z,8.10
2018-05-06T10:55:53.835Z,7.53
2018-05-06T10:58:23.247Z,6.97
2018-05-06T11:00:51.502Z,8.05
2018-05-06T11:03:19.768Z,7.00
2018-05-06T11:05:48.792Z,7.28
2018-05-06T11:08:17.055Z,6.27
2018-05-06T11:10:46.071Z,5.67
2018-05-06T11:13:14.331Z,6.00
2018-05-06T11:15:43.354Z,5.55
2018-05-06T11:18:11.618Z,5.23
2018-05-06T11:20:39.885Z,5.70
2018-05-06T11:23:08.908Z,5.93
2018-05-06T11:25:37.177Z,5.90
2018-05-06T11:28:05.432Z,5.23
2018-05-06T11:30:33.701Z,5.60
2018-05-06T11:33:01.967Z,5.80
2018-05-06T11:35:30.220Z,4.95
2018-05-06T11:37:58.483Z,4.67
2018-05-06T11:40:26.733Z,5.27
2018-05-06T11:42:55.767Z,5.40
2018-05-06T11:45:24.079Z,4.97
2018-05-06T11:47:52.299Z,5.00
2018-05-06T11:50:21.310Z,5.40
2018-05-06T11:52:49.580Z,5.32
2018-05-06T11:55:18.943Z,5.16
2018-05-06T11:57:47.212Z,5.62
2018-05-06T12:00:15.481Z,4.78
2018-05-06T12:02:43.748Z,4.60
2018-05-06T12:05:12.012Z,4.93
2018-05-06T12:07:41.038Z,4.80
2018-05-06T12:10:09.300Z,5.27
2018-05-06T12:12:38.323Z,4.97
2018-05-06T12:15:06.575Z,4.72
2018-05-06T12:17:34.861Z,5.75
2018-05-06T12:20:03.110Z,4.97
2018-05-06T12:22:31.371Z,5.00
2018-05-06T12:24:59.646Z,4.75
2018-05-06T12:27:27.911Z,4.47
2018-05-06T12:29:56.162Z,4.60
2018-05-06T12:32:24.437Z,4.40
2018-05-06T12:34:52.694Z,5.20
2018-05-06T12:37:21.216Z,4.85
2018-05-06T12:39:49.475Z,5.18
2018-05-06T12:42:18.493Z,4.60
2018-05-06T12:44:46.756Z,4.85
2018-05-06T12:47:15.787Z,4.75
2018-05-06T12:49:44.065Z,4.40
2018-05-06T12:52:12.311Z,3.90
2018-05-06T12:54:41.343Z,3.90
2018-05-06T12:57:09.603Z,3.87
2018-05-06T12:59:37.882Z,3.90
2018-05-06T13:02:06.145Z,4.00
2018-05-06T13:04:35.188Z,3.78
2018-05-06T13:07:03.448Z,3.60
2018-05-06T13:09:31.715Z,3.87
2018-05-06T13:12:00.743Z,3.37
2018-05-06T13:14:29.014Z,2.87
2018-05-06T13:16:57.269Z,3.47
2018-05-06T13:19:26.291Z,3.05
2018-05-06T13:21:54.546Z,3.17
2018-05-06T13:24:23.571Z,3.13
2018-05-06T13:26:51.815Z,3.53
2018-05-06T13:29:20.758Z,3.46
2018-05-06T13:31:49.011Z,3.28
2018-05-06T13:34:17.277Z,3.00
2018-05-06T13:36:46.304Z,3.07
2018-05-06T13:39:14.567Z,3.25
2018-05-06T13:41:43.595Z,3.22
2018-05-06T13:44:11.931Z,2.80
2018-05-06T13:46:40.948Z,3.33
2018-05-06T13:49:09.206Z,3.25
2018-05-06T13:51:38.226Z,2.92
2018-05-06T13:54:06.495Z,3.00
2018-05-06T13:56:35.519Z,2.87
2018-05-06T13:59:03.785Z,2.80
2018-05-06T14:01:32.060Z,2.80
2018-05-06T14:04:00.309Z,3.28
2018-05-06T14:06:29.391Z,2.87
2018-05-06T14:08:57.667Z,3.35
2018-05-06T14:11:25.915Z,2.85
2018-05-06T14:13:54.183Z,2.75
2018-05-06T14:16:22.440Z,3.47
2018-05-06T14:18:50.723Z,3.07
2018-05-06T14:21:18.980Z,3.03
2018-05-06T14:23:47.231Z,2.70
2018-05-06T14:26:15.603Z,3.10
2018-05-06T14:28:43.862Z,3.30
2018-05-06T14:31:12.989Z,3.00
2018-05-06T14:33:41.246Z,3.20
2018-05-06T14:36:10.283Z,3.17
2018-05-06T14:38:38.532Z,3.37
2018-05-06T14:41:06.807Z,2.85
2018-05-06T14:43:35.837Z,2.58
2018-05-06T14:46:04.088Z,2.45
2018-05-06T14:48:32.371Z,2.77
2018-05-06T14:51:01.377Z,2.67
2018-05-06T14:53:31.102Z,2.52
2018-05-06T14:55:59.421Z,2.58
2018-05-06T14:58:27.684Z,2.57
2018-05-06T15:00:55.947Z,2.70
2018-05-06T15:03:24.212Z,2.60
2018-05-06T15:05:52.590Z,2.78
2018-05-06T15:08:20.854Z,2.80
2018-05-06T15:10:49.885Z,2.90
2018-05-06T15:13:18.146Z,2.87
2018-05-06T15:15:46.441Z,2.90
2018-05-06T15:18:15.499Z,2.93
2018-05-06T15:20:43.736Z,3.47
2018-05-06T15:23:12.000Z,3.28
2018-05-06T15:25:40.269Z,2.37
2018-05-06T15:28:08.523Z,2.70
2018-05-06T15:30:36.771Z,2.97
2018-05-06T15:33:05.047Z,2.80
2018-05-06T15:35:33.314Z,2.65
2018-05-06T15:38:01.568Z,2.50
2018-05-06T15:40:29.850Z,2.93
2018-05-06T15:42:58.098Z,2.58
2018-05-06T15:45:26.375Z,2.70
2018-05-06T15:47:54.640Z,2.53
2018-05-06T15:50:22.995Z,2.80
2018-05-06T15:52:51.180Z,2.70
2018-05-06T15:55:19.435Z,2.75
2018-05-06T15:57:47.714Z,2.70
2018-05-06T16:00:16.056Z,2.57
2018-05-06T16:03:04.373Z,2.90
2018-05-06T16:05:32.626Z,2.80
2018-05-06T16:08:00.894Z,2.60
2018-05-06T16:10:29.167Z,2.40
2018-05-06T16:12:57.432Z,2.55
2018-05-06T16:15:25.674Z,2.60
2018-05-06T16:17:53.935Z,2.57
2018-05-06T16:20:22.408Z,2.62
2018-05-06T16:22:50.703Z,2.50
2018-05-06T16:25:19.046Z,2.85
2018-05-06T16:27:48.074Z,2.33
2018-05-06T16:30:16.323Z,2.83
2018-05-06T16:32:45.354Z,2.93
2018-05-06T16:35:13.615Z,3.08
2018-05-06T16:37:42.717Z,2.77
2018-05-06T16:40:10.974Z,2.95
2018-05-06T16:42:39.236Z,2.64
2018-05-06T16:45:07.497Z,2.67
2018-05-06T16:47:35.764Z,2.63
2018-05-06T16:50:04.017Z,2.50
2018-05-06T16:52:32.291Z,2.10
2018-05-06T16:55:01.324Z,2.60
2018-05-06T16:57:29.601Z,2.67
2018-05-06T16:59:57.857Z,2.60
2018-05-06T17:02:27.689Z,2.26
2018-05-06T17:04:55.965Z,2.90
2018-05-06T17:07:24.239Z,2.30
2018-05-06T17:09:52.490Z,2.10
2018-05-06T17:12:20.760Z,2.60
2018-05-06T17:14:49.018Z,2.30
2018-05-06T17:17:17.275Z,2.50
2018-05-06T17:19:45.587Z,2.58
2018-05-06T17:22:14.558Z,2.10
2018-05-06T17:24:42.820Z,2.17
2018-05-06T17:27:11.072Z,2.73
2018-05-06T17:29:39.344Z,2.13
2018-05-06T17:32:07.591Z,2.30
2018-05-06T17:34:36.342Z,2.10
2018-05-06T17:37:05.372Z,2.50
2018-05-06T17:39:33.755Z,1.93
2018-05-06T17:42:02.007Z,2.45
2018-05-06T17:44:30.278Z,2.25
2018-05-06T17:46:59.302Z,2.20
2018-05-06T17:49:27.564Z,2.20
2018-05-06T17:51:56.586Z,2.00
2018-05-06T17:54:26.086Z,2.40
2018-05-06T17:56:54.352Z,2.10
2018-05-06T17:59:22.624Z,1.98
2018-05-06T18:01:51.647Z,2.10
2018-05-06T18:04:19.915Z,2.27
2018-05-06T18:06:48.474Z,2.10
2018-05-06T18:09:16.787Z,1.83
2018-05-06T18:11:45.064Z,1.95
2018-05-06T18:14:13.396Z,2.17
2018-05-06T18:16:41.658Z,1.80
2018-05-06T18:19:09.921Z,1.87
2018-05-06T18:21:38.184Z,2.30
2018-05-06T18:24:07.287Z,2.17
2018-05-06T18:26:35.473Z,1.90
2018-05-06T18:29:03.791Z,2.00
2018-05-06T18:31:32.018Z,2.03
2018-05-06T18:34:01.250Z,1.80
2018-05-06T18:36:29.504Z,2.10
2018-05-06T18:38:58.611Z,1.97
2018-05-06T18:41:26.879Z,1.90
2018-05-06T18:43:55.902Z,1.90
2018-05-06T18:46:24.203Z,1.90
2018-05-06T18:48:52.447Z,1.93
2018-05-06T18:51:20.716Z,2.00
2018-05-06T18:53:49.735Z,1.80
2018-05-06T18:56:18.015Z,2.17
2018-05-06T18:58:46.272Z,2.47
2018-05-06T19:01:15.309Z,1.70
2018-05-06T19:03:43.567Z,2.30
2018-05-06T19:06:11.835Z,2.10
2018-05-06T19:08:40.867Z,1.60
2018-05-06T19:11:09.139Z,2.63
2018-05-06T19:13:37.402Z,2.13
2018-05-06T19:16:05.670Z,2.67
2018-05-06T19:18:34.688Z,2.40
2018-05-06T19:21:02.951Z,1.83
2018-05-06T19:23:31.971Z,2.10
2018-05-06T19:26:00.255Z,2.10
2018-05-06T19:28:28.515Z,2.00
2018-05-06T19:30:57.542Z,2.00
2018-05-06T19:33:25.801Z,2.00
2018-05-06T19:35:56.083Z,2.43
2018-05-06T19:38:24.340Z,1.87
2018-05-06T19:40:52.613Z,2.20
2018-05-06T19:43:20.863Z,2.27
2018-05-06T19:45:51.138Z,1.97
2018-05-06T19:48:19.651Z,2.23
2018-05-06T19:50:47.910Z,2.27
2018-05-06T19:53:16.174Z,2.20
2018-05-06T19:55:45.696Z,1.80
2018-05-06T19:58:14.046Z,1.90
2018-05-06T20:00:42.315Z,2.00
2018-05-06T20:03:10.559Z,2.30
2018-05-06T20:05:39.138Z,2.30
2018-05-06T20:08:07.398Z,2.03
2018-05-06T20:10:35.670Z,2.00
2018-05-06T20:13:03.939Z,2.10
2018-05-06T20:15:32.219Z,1.80
2018-05-06T20:18:00.475Z,2.20
2018-05-06T20:20:29.534Z,1.90
2018-05-06T20:22:57.790Z,1.90
2018-05-06T20:25:26.066Z,1.80
2018-05-06T20:27:54.347Z,1.90
2018-05-06T20:30:22.620Z,2.27
2018-05-06T20:32:50.886Z,1.80
2018-05-06T20:35:19.152Z,2.00
2018-05-06T20:37:48.167Z,1.90
2018-05-06T20:40:16.443Z,2.10
2018-05-06T20:42:44.699Z,2.10
2018-05-06T20:45:12.968Z,1.53
2018-05-06T20:47:41.236Z,1.80
2018-05-06T20:50:09.489Z,1.97
2018-05-06T20:52:37.757Z,1.70
2018-05-06T20:55:06.024Z,1.70
2018-05-06T20:57:34.295Z,1.80
2018-05-06T21:00:03.308Z,1.93
2018-05-06T21:02:31.571Z,1.80
2018-05-06T21:05:00.608Z,1.80
2018-05-06T21:07:28.886Z,2.20
2018-05-06T21:09:57.142Z,1.83
2018-05-06T21:12:25.426Z,1.80
2018-05-06T21:14:53.678Z,1.98
2018-05-06T21:17:21.944Z,1.90
2018-05-06T21:19:50.202Z,1.90
2018-05-06T21:22:18.468Z,2.10
2018-05-06T21:24:46.732Z,2.03
2018-05-06T21:27:15.746Z,2.03
2018-05-06T21:29:43.998Z,1.80
2018-05-06T21:32:13.044Z,1.90
2018-05-06T21:34:41.327Z,2.10
2018-05-06T21:37:10.635Z,2.42
2018-05-06T21:39:38.913Z,2.00
2018-05-06T21:42:07.161Z,2.00
2018-05-06T21:44:35.411Z,2.13
2018-05-06T21:47:04.448Z,2.10
2018-05-06T21:49:32.706Z,2.20
2018-05-06T21:52:01.750Z,1.90
2018-05-06T21:54:30.074Z,2.30
2018-05-06T21:56:58.287Z,1.83
2018-05-06T21:59:26.535Z,2.20
2018-05-06T22:01:55.567Z,2.00
2018-05-06T22:04:23.819Z,1.80
2018-05-06T22:06:52.849Z,2.28
2018-05-06T22:09:21.119Z,1.87
2018-05-06T22:11:49.363Z,1.90
2018-05-06T22:14:18.393Z,1.90
2018-05-06T22:16:46.680Z,1.87
2018-05-06T22:19:14.930Z,2.50
2018-05-06T22:21:43.972Z,1.90
2018-05-06T22:24:12.259Z,2.00
2018-05-06T22:26:40.514Z,2.10
2018-05-06T22:29:08.776Z,2.20
2018-05-06T22:31:37.816Z,1.90
2018-05-06T22:34:06.094Z,2.10
2018-05-06T22:36:34.360Z,2.17
2018-05-06T22:39:02.629Z,2.43
2018-05-06T22:41:30.952Z,1.93
2018-05-06T22:43:59.143Z,2.03
2018-05-06T22:46:27.435Z,2.00
2018-05-06T22:48:55.705Z,2.13
2018-05-06T22:51:23.960Z,2.40
2018-05-06T22:53:52.292Z,1.90
2018-05-06T22:56:20.542Z,2.30
2018-05-06T22:58:48.887Z,2.17
2018-05-06T23:01:17.146Z,2.23
2018-05-06T23:03:45.424Z,1.93
2018-05-06T23:06:14.459Z,2.22
2018-05-06T23:08:42.731Z,2.10
2018-05-06T23:11:11.058Z,2.37
2018-05-06T23:13:40.007Z,2.20
2018-05-06T23:16:08.267Z,2.10
2018-05-06T23:18:36.549Z,2.57
2018-05-06T23:21:04.811Z,2.00
2018-05-06T23:23:33.848Z,2.10
2018-05-06T23:26:02.115Z,2.10
2018-05-06T23:28:30.386Z,2.27
2018-05-06T23:30:58.648Z,2.10
2018-05-06T23:33:27.687Z,2.27
2018-05-06T23:35:56.001Z,2.13
2018-05-06T23:38:24.219Z,2.00
2018-05-06T23:40:53.248Z,1.87
2018-05-06T23:43:21.525Z,2.23
2018-05-06T23:45:49.770Z,2.15
2018-05-06T23:48:18.811Z,2.10
2018-05-06T23:50:47.067Z,2.30
2018-05-06T23:53:15.331Z,2.43
2018-05-06T23:55:44.350Z,2.37
2018-05-06T23:58:12.620Z,2.33
